Time;durP1;ratioP1;P1;durP2;ratioP2;P2;SDS_P1;SDS_P2;PMS_P1;PMS_P2;Temp;Humidity;BMP_temperature;BMP_pressure;BME280_temperature;BME280_humidity;BME280_pressure;Samples;Min_cycle;Max_cycle;Signal;HPM_P1;HPM_P2
2022/04/07 00:00:09;;;;;;;1.47;1.37;;;10.80;99.90;;;;;;5033375;28;20431;-46
2022/04/07 00:02:38;;;;;;;1.30;1.20;;;10.80;99.90;;;;;;5026714;28;20588;-47
2022/04/07 00:05:06;;;;;;;2.80;1.23;;;10.80;99.90;;;;;;5031446;28;20448;-46
2022/04/07 00:07:34;;;;;;;1.57;1.47;;;10.80;99.90;;;;;;5031459;28;20490;-46
2022/04/07 00:10:02;;;;;;;1.17;1.07;;;10.80;99.90;;;;;;5025645;28;20828;-47
2022/04/07 00:12:32;;;;;;;1.90;1.47;;;10.80;99.90;;;;;;5031211;28;20452;-46
2022/04/07 00:15:02;;;;;;;2.30;1.57;;;10.80;99.90;;;;;;5031851;28;20456;-47
2022/04/07 00:17:30;;;;;;;1.30;1.17;;;10.80;99.90;;;;;;5021249;28;20523;-46
2022/04/07 00:19:58;;;;;;;1.50;1.27;;;10.80;99.90;;;;;;5032518;28;20875;-46
2022/04/07 00:22:27;;;;;;;3.30;1.27;;;10.80;99.90;;;;;;5032116;28;20975;-48
2022/04/07 00:24:55;;;;;;;1.53;1.43;;;10.80;99.90;;;;;;5015955;28;20493;-47
2022/04/07 00:27:23;;;;;;;1.40;1.30;;;10.80;99.90;;;;;;5031971;28;20479;-46
2022/04/07 00:29:51;;;;;;;2.40;1.43;;;10.80;99.90;;;;;;5032228;28;21114;-46
2022/04/07 00:32:20;;;;;;;1.50;1.40;;;10.80;99.90;;;;;;5025227;28;20984;-47
2022/04/07 00:34:54;;;;;;;1.00;0.90;;;10.70;99.90;;;;;;5023086;28;20557;-46
2022/04/07 00:37:23;;;;;;;1.30;1.10;;;10.70;99.90;;;;;;5031480;28;20979;-45
2022/04/07 00:39:51;;;;;;;2.83;1.47;;;10.80;99.90;;;;;;5023781;28;20947;-46
2022/04/07 00:42:20;;;;;;;1.17;1.10;;;10.70;99.90;;;;;;5031697;28;20479;-49
2022/04/07 00:44:47;;;;;;;1.50;1.30;;;10.80;99.90;;;;;;5031291;28;20551;-49
2022/04/07 00:47:16;;;;;;;1.70;1.37;;;10.70;99.90;;;;;;5030204;28;20943;-47
2022/04/07 00:49:45;;;;;;;1.40;1.10;;;10.80;99.90;;;;;;5031101;28;20540;-48
2022/04/07 00:52:13;;;;;;;1.40;1.30;;;10.80;99.90;;;;;;5031409;28;20452;-48
2022/04/07 00:54:42;;;;;;;1.17;1.07;;;10.80;99.90;;;;;;5023328;28;20467;-47
2022/04/07 00:57:11;;;;;;;1.13;1.03;;;10.80;99.90;;;;;;5031699;28;20485;-46
2022/04/07 00:59:41;;;;;;;1.87;1.20;;;10.80;99.90;;;;;;5031498;28;20440;-47
2022/04/07 01:02:10;;;;;;;1.00;0.90;;;10.80;99.90;;;;;;5022459;28;20459;-46
2022/04/07 01:04:38;;;;;;;1.10;1.00;;;10.80;99.90;;;;;;5031674;28;20464;-46
2022/04/07 01:07:09;;;;;;;1.40;1.30;;;10.80;99.90;;;;;;5031347;28;20490;-47
2022/04/07 01:09:38;;;;;;;1.20;1.10;;;10.80;99.90;;;;;;5015533;28;20491;-47
2022/04/07 01:12:07;;;;;;;0.80;0.80;;;10.70;99.90;;;;;;5031064;28;20458;-49
2022/04/07 01:14:35;;;;;;;1.30;1.20;;;10.70;99.90;;;;;;5031218;28;20989;-47
2022/04/07 01:17:04;;;;;;;1.17;0.90;;;10.70;99.90;;;;;;5028213;28;20463;-46
2022/04/07 01:19:32;;;;;;;0.90;0.73;;;10.70;99.90;;;;;;5031247;28;20486;-47
2022/04/07 01:22:00;;;;;;;1.43;1.03;;;10.70;99.90;;;;;;5031224;28;20464;-47
2022/04/07 01:24:32;;;;;;;1.50;1.00;;;10.70;99.90;;;;;;5022971;28;20468;-48
2022/04/07 01:27:01;;;;;;;1.50;1.40;;;10.70;99.90;;;;;;5030834;28;20436;-48
2022/04/07 01:29:29;;;;;;;1.10;1.00;;;10.70;99.90;;;;;;5031665;28;20451;-48
2022/04/07 01:31:58;;;;;;;1.23;1.00;;;10.70;99.90;;;;;;5021763;28;20990;-47
2022/04/07 01:34:26;;;;;;;0.97;0.80;;;10.70;99.90;;;;;;5030484;28;20452;-48
2022/04/07 01:36:55;;;;;;;1.43;1.10;;;10.80;99.90;;;;;;5031287;28;20497;-44
2022/04/07 01:39:27;;;;;;;1.00;0.93;;;10.70;99.90;;;;;;5015388;28;20539;-47
2022/04/07 01:41:57;;;;;;;1.20;1.10;;;10.70;99.90;;;;;;5030216;28;20436;-47
2022/04/07 01:44:26;;;;;;;1.67;1.30;;;10.70;99.90;;;;;;5031120;28;20459;-47
2022/04/07 01:46:55;;;;;;;1.07;0.97;;;10.80;99.90;;;;;;5030455;28;20479;-47
2022/04/07 01:49:24;;;;;;;1.37;1.00;;;10.70;99.90;;;;;;5029543;28;20474;-48
2022/04/07 01:51:53;;;;;;;1.47;1.03;;;10.70;99.90;;;;;;5030458;28;20439;-46
2022/04/07 01:54:21;;;;;;;1.13;1.03;;;10.70;99.90;;;;;;5024485;28;20846;-47
2022/04/07 01:56:50;;;;;;;1.20;1.00;;;10.70;99.90;;;;;;5030534;28;20467;-48
2022/04/07 01:59:21;;;;;;;1.13;0.90;;;10.70;99.90;;;;;;5030502;28;20452;-46
2022/04/07 02:01:49;;;;;;;0.80;0.80;;;10.80;99.90;;;;;;5029913;28;20484;-48
2022/04/07 02:04:17;;;;;;;1.27;1.00;;;10.70;99.90;;;;;;5005205;28;20556;-48
2022/04/07 02:06:45;;;;;;;2.97;1.13;;;10.70;99.90;;;;;;5009699;28;20920;-48
2022/04/07 02:09:13;;;;;;;1.33;1.00;;;10.70;99.90;;;;;;5002343;28;21032;-48
2022/04/07 02:11:44;;;;;;;1.20;1.00;;;10.70;99.90;;;;;;5010748;28;20507;-49
2022/04/07 02:14:13;;;;;;;1.03;0.70;;;10.70;99.90;;;;;;5028652;28;20467;-46
2022/04/07 02:16:43;;;;;;;2.37;0.70;;;10.70;99.90;;;;;;5029475;28;20456;-48
2022/04/07 02:19:11;;;;;;;1.33;1.23;;;10.70;99.90;;;;;;5002043;28;20479;-47
2022/04/07 02:21:39;;;;;;;1.70;1.00;;;10.70;99.90;;;;;;5010692;28;20437;-46
2022/04/07 02:24:10;;;;;;;1.10;1.00;;;10.70;99.90;;;;;;5014101;28;20481;-46
2022/04/07 02:26:38;;;;;;;1.23;1.13;;;10.70;99.90;;;;;;5027930;28;20427;-46
2022/04/07 02:29:06;;;;;;;1.20;0.90;;;10.70;99.90;;;;;;5029202;28;20547;-47
2022/04/07 02:31:34;;;;;;;1.00;0.80;;;10.70;99.90;;;;;;5021863;28;20531;-45
2022/04/07 02:34:04;;;;;;;2.13;0.97;;;10.70;99.90;;;;;;5028988;28;20529;-46
2022/04/07 02:36:32;;;;;;;1.23;1.10;;;10.70;99.90;;;;;;5028302;28;20954;-47
2022/04/07 02:39:00;;;;;;;1.23;0.93;;;10.70;99.90;;;;;;5020178;28;20840;-47
2022/04/07 02:41:33;;;;;;;2.40;0.93;;;10.70;99.90;;;;;;5029641;28;20436;-49
2022/04/07 02:44:02;;;;;;;0.93;0.90;;;10.70;99.90;;;;;;5029434;28;20479;-48
2022/04/07 02:46:30;;;;;;;1.40;1.27;;;10.70;99.90;;;;;;5027266;28;20447;-48
2022/04/07 02:48:59;;;;;;;0.90;0.90;;;10.70;99.90;;;;;;5029718;28;20486;-46
2022/04/07 02:51:31;;;;;;;0.80;0.80;;;10.70;99.90;;;;;;5029316;28;20440;-50
2022/04/07 02:53:59;;;;;;;2.67;1.40;;;10.70;99.90;;;;;;5013703;28;20506;-49
2022/04/07 02:56:28;;;;;;;2.40;0.83;;;10.70;99.90;;;;;;5030312;28;20468;-45
2022/04/07 02:58:56;;;;;;;1.60;1.00;;;10.70;99.90;;;;;;5029142;28;20471;-48
2022/04/07 03:01:29;;;;;;;0.80;0.77;;;10.70;99.90;;;;;;5029660;28;20455;-48
2022/04/07 03:03:57;;;;;;;0.70;0.70;;;10.70;99.90;;;;;;5029111;28;20464;-50
2022/04/07 03:06:26;;;;;;;1.10;1.00;;;10.70;99.90;;;;;;5030577;28;20930;-46
2022/04/07 03:08:55;;;;;;;1.20;0.77;;;10.70;99.90;;;;;;5019072;28;20504;-48
2022/04/07 03:11:23;;;;;;;1.47;1.03;;;10.70;99.90;;;;;;5027869;28;20899;-48
2022/04/07 03:13:51;;;;;;;0.97;0.87;;;10.70;99.90;;;;;;5029814;28;20530;-48
2022/04/07 03:16:19;;;;;;;0.90;0.70;;;10.70;99.90;;;;;;5029654;28;20514;-47
2022/04/07 03:18:47;;;;;;;1.23;1.13;;;10.70;99.90;;;;;;5015647;28;20479;-49
2022/04/07 03:21:15;;;;;;;1.87;0.83;;;10.70;99.90;;;;;;5029547;28;20435;-47
2022/04/07 03:23:43;;;;;;;1.00;1.00;;;10.70;99.90;;;;;;5027577;28;20843;-47
2022/04/07 03:26:13;;;;;;;1.10;1.00;;;10.70;99.90;;;;;;5029940;28;20436;-48
2022/04/07 03:28:41;;;;;;;1.20;0.90;;;10.70;99.90;;;;;;5028051;28;21006;-46
2022/04/07 03:31:09;;;;;;;1.20;0.73;;;10.70;99.90;;;;;;5029818;28;20440;-46
2022/04/07 03:33:37;;;;;;;1.13;1.03;;;10.70;99.90;;;;;;5023825;28;20500;-46
2022/04/07 03:36:06;;;;;;;1.10;1.10;;;10.70;99.90;;;;;;5028764;28;21014;-49
2022/04/07 03:38:35;;;;;;;1.67;1.13;;;10.70;99.90;;;;;;5020167;28;20473;-48
2022/04/07 03:41:05;;;;;;;1.17;1.07;;;10.70;99.90;;;;;;5029293;28;20436;-48
2022/04/07 03:43:35;;;;;;;1.00;0.90;;;10.70;99.90;;;;;;5028709;28;20468;-49
2022/04/07 03:46:04;;;;;;;1.60;1.40;;;10.70;99.90;;;;;;5028237;28;20440;-49
2022/04/07 03:48:32;;;;;;;1.40;1.20;;;10.70;99.90;;;;;;5027255;28;20478;-50
2022/04/07 03:51:00;;;;;;;1.33;0.70;;;10.70;99.90;;;;;;5028083;28;20857;-50
2022/04/07 03:53:28;;;;;;;1.57;1.10;;;10.70;99.90;;;;;;5023893;28;20996;-48
2022/04/07 03:55:56;;;;;;;1.30;0.97;;;10.70;99.90;;;;;;5017133;28;20940;-47
2022/04/07 03:58:26;;;;;;;0.87;0.77;;;10.70;99.90;;;;;;5032291;28;20451;-48
2022/04/07 04:00:55;;;;;;;4.03;1.90;;;10.70;99.90;;;;;;5028728;28;20890;-48
2022/04/07 04:03:23;;;;;;;0.80;0.80;;;10.70;99.90;;;;;;5031566;28;20561;-46
2022/04/07 04:05:51;;;;;;;1.57;0.80;;;10.60;99.90;;;;;;5032259;28;20536;-48
2022/04/07 04:08:19;;;;;;;0.93;0.70;;;10.70;99.90;;;;;;5024831;28;20564;-46
2022/04/07 04:10:47;;;;;;;0.70;0.70;;;10.70;99.90;;;;;;5031117;28;20789;-47
2022/04/07 04:13:15;;;;;;;1.17;0.80;;;10.70;99.90;;;;;;5031702;28;20546;-46
2022/04/07 04:15:44;;;;;;;0.90;0.90;;;10.60;99.90;;;;;;5031259;28;20439;-47
2022/04/07 04:18:13;;;;;;;3.03;0.90;;;10.60;99.90;;;;;;5026072;28;20489;-47
2022/04/07 04:20:41;;;;;;;1.47;1.00;;;10.60;99.90;;;;;;5031861;28;20523;-47
2022/04/07 04:23:10;;;;;;;0.97;0.90;;;10.60;99.90;;;;;;5026109;28;20503;-48
2022/04/07 04:25:38;;;;;;;0.80;0.80;;;10.60;99.90;;;;;;5029505;28;20455;-47
2022/04/07 04:28:08;;;;;;;1.30;0.80;;;10.60;99.90;;;;;;5031937;28;20471;-47
2022/04/07 04:30:36;;;;;;;1.37;0.80;;;10.70;99.90;;;;;;5032148;28;20717;-46
2022/04/07 04:33:05;;;;;;;1.07;0.70;;;10.70;99.90;;;;;;5025885;28;20480;-46
2022/04/07 04:35:34;;;;;;;1.30;0.67;;;10.60;99.90;;;;;;5031491;28;20491;-47
2022/04/07 04:38:03;;;;;;;1.07;0.97;;;10.60;99.90;;;;;;5026484;28;20991;-47
2022/04/07 04:40:31;;;;;;;0.70;0.60;;;10.60;99.90;;;;;;5028383;28;20439;-46
2022/04/07 04:42:59;;;;;;;1.27;0.73;;;10.70;99.90;;;;;;5016219;28;20475;-48
2022/04/07 04:45:28;;;;;;;1.00;0.90;;;10.60;99.90;;;;;;5031473;28;20456;-48
2022/04/07 04:47:56;;;;;;;1.37;0.70;;;10.60;99.90;;;;;;5024088;28;20835;-48
2022/04/07 04:50:25;;;;;;;1.00;0.80;;;10.70;99.90;;;;;;5031614;28;20466;-45
2022/04/07 04:52:54;;;;;;;1.33;0.80;;;10.60;99.90;;;;;;5027538;28;20523;-47
2022/04/07 04:55:22;;;;;;;1.03;0.70;;;10.60;99.90;;;;;;5018887;28;20447;-46
2022/04/07 04:57:55;;;;;;;3.00;0.80;;;10.60;99.90;;;;;;5031338;28;20552;-47
2022/04/07 05:00:23;;;;;;;1.90;0.70;;;10.60;99.90;;;;;;5031529;28;20464;-47
2022/04/07 05:02:51;;;;;;;0.53;0.50;;;10.60;99.90;;;;;;5026613;28;20552;-47
2022/04/07 05:05:20;;;;;;;1.60;0.80;;;10.60;99.90;;;;;;5031005;28;20535;-49
2022/04/07 05:07:48;;;;;;;1.37;0.70;;;10.60;99.90;;;;;;5028121;28;20476;-47
2022/04/07 05:10:18;;;;;;;0.97;0.53;;;10.60;99.90;;;;;;5024867;28;20824;-46
2022/04/07 05:12:47;;;;;;;1.70;0.90;;;10.60;99.90;;;;;;5030522;28;20471;-48
2022/04/07 05:15:15;;;;;;;1.57;0.73;;;10.60;99.90;;;;;;5030569;28;20505;-46
2022/04/07 05:17:48;;;;;;;0.60;0.50;;;10.60;99.90;;;;;;5025427;28;20495;-47
2022/04/07 05:20:17;;;;;;;1.13;0.80;;;10.60;99.90;;;;;;5031319;28;20436;-46
2022/04/07 05:22:46;;;;;;;1.10;1.00;;;10.60;99.90;;;;;;5019126;28;20452;-45
2022/04/07 05:25:15;;;;;;;1.17;1.07;;;10.60;99.90;;;;;;5027184;28;20510;-47
2022/04/07 05:27:45;;;;;;;1.00;0.67;;;10.60;99.90;;;;;;5030439;28;20543;-48
2022/04/07 05:30:15;;;;;;;1.00;0.80;;;10.60;99.90;;;;;;5031209;28;20958;-48
2022/04/07 05:32:46;;;;;;;0.70;0.70;;;10.60;99.90;;;;;;5025709;28;20993;-47
2022/04/07 05:35:15;;;;;;;1.23;0.90;;;10.60;99.90;;;;;;5030946;28;20547;-48
2022/04/07 05:37:44;;;;;;;3.97;1.17;;;10.60;99.90;;;;;;5028291;28;20468;-48
2022/04/07 05:40:14;;;;;;;1.80;0.50;;;10.60;99.90;;;;;;5025214;28;20536;-47
2022/04/07 05:42:43;;;;;;;1.87;0.80;;;10.60;99.90;;;;;;5029797;28;20550;-47
2022/04/07 05:45:12;;;;;;;1.07;0.67;;;10.60;99.90;;;;;;5030368;28;21014;-46
2022/04/07 05:47:40;;;;;;;0.60;0.47;;;10.60;99.90;;;;;;5025423;28;20468;-44
2022/04/07 05:50:10;;;;;;;0.60;0.50;;;10.60;99.90;;;;;;5031230;28;20482;-47
2022/04/07 05:52:38;;;;;;;0.80;0.60;;;10.60;99.90;;;;;;5026690;28;20494;-46
2022/04/07 05:55:09;;;;;;;0.80;0.77;;;10.60;99.90;;;;;;5022683;28;21000;-48
2022/04/07 05:57:37;;;;;;;0.80;0.80;;;10.60;99.90;;;;;;5030510;28;20835;-46
2022/04/07 06:00:11;;;;;;;1.10;0.70;;;10.60;99.90;;;;;;5030053;28;20467;-46
2022/04/07 06:02:41;;;;;;;0.63;0.60;;;10.60;99.90;;;;;;5024570;28;20468;-49
2022/04/07 06:05:11;;;;;;;1.30;0.60;;;10.60;99.90;;;;;;5010912;28;20660;-47
2022/04/07 06:07:39;;;;;;;1.90;0.90;;;10.60;99.90;;;;;;5020415;28;20562;-48
2022/04/07 06:10:09;;;;;;;4.20;0.93;;;10.60;99.90;;;;;;5027190;28;20493;-47
2022/04/07 06:12:42;;;;;;;1.00;0.50;;;10.60;99.90;;;;;;5029241;28;20460;-49
2022/04/07 06:15:12;;;;;;;1.40;0.80;;;10.60;99.90;;;;;;5030470;28;20887;-47
2022/04/07 06:17:42;;;;;;;0.80;0.73;;;10.60;99.90;;;;;;5023481;28;20483;-47
2022/04/07 06:20:11;;;;;;;5.03;0.73;;;10.60;99.90;;;;;;5028079;28;20466;-45
2022/04/07 06:22:39;;;;;;;0.60;0.60;;;10.60;99.90;;;;;;5025037;28;20471;-44
2022/04/07 06:25:09;;;;;;;1.40;0.70;;;10.60;99.90;;;;;;5022976;28;20542;-48
2022/04/07 06:27:38;;;;;;;1.60;0.80;;;10.60;99.90;;;;;;5028805;28;20481;-48
2022/04/07 06:30:10;;;;;;;1.80;0.80;;;10.60;99.90;;;;;;5030232;28;20943;-48
2022/04/07 06:32:40;;;;;;;0.60;0.53;;;10.60;99.90;;;;;;5025810;28;20985;-48
2022/04/07 06:35:10;;;;;;;0.83;0.80;;;10.60;99.90;;;;;;5028929;28;20448;-44
2022/04/07 06:37:51;;;;;;;0.60;0.50;;;10.60;99.90;;;;;;5027719;28;20475;-48
2022/04/07 06:40:21;;;;;;;0.80;0.60;;;10.60;99.90;;;;;;5026912;28;20950;-49
2022/04/07 06:42:50;;;;;;;0.90;0.50;;;10.60;99.90;;;;;;5028790;28;20480;-46
2022/04/07 06:45:24;;;;;;;2.03;0.90;;;10.60;99.90;;;;;;5029039;28;20841;-47
2022/04/07 06:47:53;;;;;;;0.93;0.87;;;10.60;99.90;;;;;;5026882;28;20503;-48
2022/04/07 06:50:23;;;;;;;2.60;0.77;;;10.60;99.90;;;;;;5029847;28;20440;-46
2022/04/07 06:52:52;;;;;;;1.10;0.50;;;10.60;99.90;;;;;;5025861;28;20515;-48
2022/04/07 06:55:21;;;;;;;1.20;0.70;;;10.60;99.90;;;;;;5024258;28;20470;-48
2022/04/07 06:57:54;;;;;;;0.67;0.60;;;10.60;99.90;;;;;;5028592;28;21891;-45
2022/04/07 07:00:23;;;;;;;0.60;0.50;;;10.60;99.90;;;;;;5029628;28;20568;-47
2022/04/07 07:02:54;;;;;;;1.27;0.80;;;10.60;99.90;;;;;;5021557;28;20467;-46
2022/04/07 07:05:24;;;;;;;0.80;0.80;;;10.60;99.90;;;;;;5028560;28;20460;-46
2022/04/07 07:07:53;;;;;;;0.80;0.50;;;10.60;99.90;;;;;;5026618;28;20825;-46
2022/04/07 07:10:22;;;;;;;0.60;0.47;;;10.60;99.90;;;;;;5029476;28;20443;-46
2022/04/07 07:12:52;;;;;;;2.93;0.60;;;10.60;99.90;;;;;;5028837;28;20472;-47
2022/04/07 07:15:21;;;;;;;0.60;0.60;;;10.60;99.90;;;;;;5029086;28;20463;-47
2022/04/07 07:17:51;;;;;;;0.80;0.50;;;10.60;99.90;;;;;;5024282;28;20529;-47
2022/04/07 07:20:21;;;;;;;0.97;0.60;;;10.60;99.90;;;;;;5029233;28;21036;-47
2022/04/07 07:22:49;;;;;;;1.07;0.70;;;10.60;99.90;;;;;;5025761;28;21216;-47
2022/04/07 07:25:18;;;;;;;1.03;0.40;;;10.60;99.90;;;;;;5023273;28;20458;-48
2022/04/07 07:27:47;;;;;;;1.63;0.57;;;10.60;99.90;;;;;;5032587;28;20467;-47
2022/04/07 07:30:18;;;;;;;1.40;0.53;;;10.60;99.90;;;;;;5034178;28;20416;-47
2022/04/07 07:32:48;;;;;;;0.60;0.40;;;10.60;99.90;;;;;;5029816;28;20475;-46
2022/04/07 07:35:18;;;;;;;0.60;0.60;;;10.60;99.90;;;;;;5029320;28;20959;-47
2022/04/07 07:37:53;;;;;;;0.77;0.37;;;10.60;99.90;;;;;;5030367;28;20510;-47
2022/04/07 07:40:24;;;;;;;0.60;0.50;;;10.60;99.90;;;;;;5015371;28;20471;-47
2022/04/07 07:42:55;;;;;;;0.50;0.40;;;10.60;99.90;;;;;;5013493;28;20456;-46
2022/04/07 07:45:24;;;;;;;0.50;0.50;;;10.70;99.90;;;;;;5012744;28;20471;-46
2022/04/07 07:48:13;;;;;;;0.70;0.40;;;10.60;99.90;;;;;;5013231;28;20460;-47
2022/04/07 07:50:45;;;;;;;0.60;0.60;;;10.60;99.90;;;;;;5017767;28;20932;-46
2022/04/07 07:53:19;;;;;;;0.67;0.50;;;10.60;99.90;;;;;;5026244;28;20468;-47
2022/04/07 07:55:49;;;;;;;0.50;0.40;;;10.70;99.90;;;;;;5032168;28;20927;-48
2022/04/07 07:58:17;;;;;;;0.70;0.57;;;10.60;99.90;;;;;;5030845;28;20468;-46
2022/04/07 08:00:46;;;;;;;0.60;0.60;;;10.60;99.90;;;;;;5031905;28;20456;-47
2022/04/07 08:03:15;;;;;;;0.50;0.40;;;10.60;99.90;;;;;;5019061;28;20492;-45
2022/04/07 08:05:43;;;;;;;0.50;0.50;;;10.70;99.90;;;;;;5012147;28;20433;-47
2022/04/07 08:08:12;;;;;;;0.90;0.50;;;10.70;99.90;;;;;;5016114;28;20863;-46
2022/04/07 08:10:41;;;;;;;1.03;0.50;;;10.70;99.90;;;;;;5031606;28;20436;-46
2022/04/07 08:13:10;;;;;;;0.50;0.40;;;10.70;99.90;;;;;;5021794;28;20474;-49
2022/04/07 08:15:38;;;;;;;0.60;0.43;;;10.70;99.90;;;;;;5032566;28;20527;-48
2022/04/07 08:18:08;;;;;;;0.67;0.50;;;10.70;99.90;;;;;;5019947;28;20476;-47
2022/04/07 08:20:36;;;;;;;0.50;0.40;;;10.70;99.90;;;;;;5029330;28;20990;-47
2022/04/07 08:23:05;;;;;;;0.57;0.50;;;10.70;99.90;;;;;;5026908;28;20465;-46
2022/04/07 08:25:34;;;;;;;0.63;0.60;;;10.70;99.90;;;;;;5029096;28;20451;-48
2022/04/07 08:28:04;;;;;;;0.60;0.50;;;10.70;99.90;;;;;;5031648;28;20470;-48
2022/04/07 08:30:34;;;;;;;0.60;0.50;;;10.70;99.90;;;;;;5027932;28;20445;-49
2022/04/07 08:33:03;;;;;;;0.60;0.57;;;10.70;99.90;;;;;;5031364;28;20482;-48
2022/04/07 08:35:31;;;;;;;0.60;0.50;;;10.70;99.90;;;;;;5032488;28;20491;-48
2022/04/07 08:37:59;;;;;;;0.80;0.50;;;10.70;99.90;;;;;;5025952;28;20851;-46
2022/04/07 08:40:29;;;;;;;0.60;0.40;;;10.70;99.90;;;;;;5028109;28;20808;-44
2022/04/07 08:42:58;;;;;;;0.70;0.60;;;10.70;99.90;;;;;;5032090;28;21093;-46
2022/04/07 08:45:30;;;;;;;0.60;0.50;;;10.70;99.90;;;;;;5031758;28;20471;-46
2022/04/07 08:47:59;;;;;;;0.60;0.40;;;10.70;99.90;;;;;;5015139;28;20472;-47
2022/04/07 08:50:28;;;;;;;0.50;0.40;;;10.70;99.90;;;;;;5031789;28;20451;-48
2022/04/07 08:52:57;;;;;;;0.60;0.50;;;10.70;99.90;;;;;;5027983;28;20472;-45
2022/04/07 08:55:26;;;;;;;0.90;0.50;;;10.70;99.90;;;;;;5027671;28;21035;-48
2022/04/07 08:57:54;;;;;;;1.27;0.50;;;10.70;99.90;;;;;;5031077;28;20545;-47
2022/04/07 09:00:23;;;;;;;0.60;0.50;;;10.70;99.90;;;;;;5030673;28;20859;-46
2022/04/07 09:02:53;;;;;;;0.57;0.40;;;10.70;99.90;;;;;;5026557;28;21007;-49
2022/04/07 09:05:24;;;;;;;0.53;0.50;;;10.70;99.90;;;;;;5031554;28;20475;-45
2022/04/07 09:07:53;;;;;;;0.70;0.50;;;10.70;99.90;;;;;;5028107;28;20601;-47
2022/04/07 09:10:24;;;;;;;0.70;0.60;;;10.70;99.90;;;;;;5031683;28;20436;-47
2022/04/07 09:12:52;;;;;;;1.00;0.43;;;10.70;99.90;;;;;;5030813;28;20498;-47
2022/04/07 09:15:22;;;;;;;0.60;0.60;;;10.80;99.90;;;;;;5030567;28;20851;-47
2022/04/07 09:17:54;;;;;;;1.10;0.70;;;10.80;99.90;;;;;;5028969;28;20468;-47
2022/04/07 09:20:24;;;;;;;0.50;0.43;;;10.80;99.90;;;;;;5031492;28;20963;-48
2022/04/07 09:22:57;;;;;;;0.73;0.60;;;10.80;99.90;;;;;;5029595;28;21566;-48
2022/04/07 09:25:26;;;;;;;0.50;0.40;;;10.80;99.90;;;;;;5031365;28;20567;-47
2022/04/07 09:27:57;;;;;;;0.40;0.40;;;10.80;99.90;;;;;;5030085;28;20499;-47
2022/04/07 09:30:27;;;;;;;0.63;0.50;;;10.80;99.90;;;;;;5031362;28;20467;-47
2022/04/07 09:32:56;;;;;;;0.50;0.40;;;10.80;99.90;;;;;;5023610;28;20530;-48
2022/04/07 09:35:24;;;;;;;0.63;0.63;;;10.80;99.90;;;;;;5029831;28;20452;-46
2022/04/07 09:38:01;;;;;;;0.50;0.40;;;10.80;99.90;;;;;;5027263;28;21167;-46
2022/04/07 09:40:29;;;;;;;0.40;0.30;;;10.80;99.90;;;;;;5027262;28;20800;-48
2022/04/07 09:42:58;;;;;;;0.67;0.40;;;10.80;99.90;;;;;;5030061;28;20475;-46
2022/04/07 09:45:27;;;;;;;0.50;0.40;;;10.80;99.90;;;;;;5030820;28;20456;-47
2022/04/07 09:47:58;;;;;;;1.97;0.50;;;10.80;99.90;;;;;;5022317;28;20491;-46
2022/04/07 09:50:29;;;;;;;0.50;0.30;;;10.80;99.90;;;;;;5029881;28;20435;-49
2022/04/07 09:52:58;;;;;;;0.70;0.40;;;10.80;99.90;;;;;;5028195;28;20503;-47
2022/04/07 09:55:30;;;;;;;0.90;0.60;;;10.80;99.90;;;;;;5029182;28;20451;-47
2022/04/07 09:58:00;;;;;;;0.70;0.50;;;10.80;99.90;;;;;;5029936;28;20487;-45
2022/04/07 10:00:29;;;;;;;0.70;0.50;;;10.80;99.90;;;;;;5030613;28;20464;-45
2022/04/07 10:02:59;;;;;;;0.50;0.33;;;10.80;99.90;;;;;;5021049;28;20471;-47
2022/04/07 10:05:29;;;;;;;0.57;0.50;;;10.80;99.90;;;;;;5030226;28;20464;-47
2022/04/07 10:07:58;;;;;;;1.33;0.40;;;10.80;99.90;;;;;;5029390;28;20527;-47
2022/04/07 10:10:27;;;;;;;0.63;0.40;;;10.80;99.90;;;;;;5019475;28;20466;-47
2022/04/07 10:12:59;;;;;;;0.70;0.60;;;10.80;99.90;;;;;;5029414;28;20483;-46
2022/04/07 10:15:28;;;;;;;0.60;0.40;;;10.80;99.90;;;;;;5029401;28;20823;-46
2022/04/07 10:18:02;;;;;;;0.50;0.43;;;10.80;99.90;;;;;;5028074;28;20468;-47
2022/04/07 10:20:36;;;;;;;0.40;0.30;;;10.80;99.90;;;;;;5030203;28;20559;-47
2022/04/07 10:23:15;;;;;;;0.60;0.50;;;10.80;99.90;;;;;;5028164;28;20475;-48
2022/04/07 10:25:49;;;;;;;0.50;0.30;;;10.80;99.90;;;;;;5029887;28;20462;-48
2022/04/07 10:28:19;;;;;;;0.50;0.40;;;10.80;99.90;;;;;;5029557;28;20468;-48
2022/04/07 10:30:49;;;;;;;0.63;0.50;;;10.80;99.90;;;;;;5026689;28;20437;-47
2022/04/07 10:33:41;;;;;;;1.37;0.40;;;10.70;99.90;;;;;;5028852;28;20498;-47
2022/04/07 10:36:17;;;;;;;0.93;0.60;;;10.70;99.90;;;;;;5029956;28;20558;-47
2022/04/07 10:38:49;;;;;;;1.47;0.53;;;10.80;99.90;;;;;;5027579;28;21084;-48
2022/04/07 10:41:51;;;;;;;0.50;0.40;;;10.80;99.90;;;;;;5030498;28;20514;-47
2022/04/07 10:44:21;;;;;;;0.80;0.40;;;10.70;99.90;;;;;;5029551;28;20670;-46
2022/04/07 10:46:50;;;;;;;0.97;0.60;;;10.70;99.90;;;;;;5024718;28;21287;-49
2022/04/07 10:49:24;;;;;;;1.93;0.53;;;10.70;99.90;;;;;;5029146;28;20534;-47
2022/04/07 10:51:54;;;;;;;1.60;0.60;;;10.80;99.90;;;;;;5028125;28;20428;-46
2022/04/07 10:54:24;;;;;;;0.90;0.60;;;10.70;99.90;;;;;;5023965;28;21038;-48
2022/04/07 10:56:56;;;;;;;0.70;0.60;;;10.70;99.90;;;;;;5030454;28;20432;-49
2022/04/07 10:59:27;;;;;;;0.70;0.53;;;10.70;99.90;;;;;;5029796;28;20459;-46
2022/04/07 11:02:01;;;;;;;0.60;0.53;;;10.70;99.90;;;;;;5031763;28;20809;-48
2022/04/07 11:04:42;;;;;;;1.20;0.43;;;10.70;99.90;;;;;;5013869;28;20445;-48
2022/04/07 11:07:18;;;;;;;0.70;0.43;;;10.70;99.90;;;;;;5014456;28;20429;-48
2022/04/07 11:09:49;;;;;;;0.50;0.40;;;10.70;99.90;;;;;;5014541;28;20440;-46
2022/04/07 11:12:23;;;;;;;0.63;0.40;;;10.80;99.90;;;;;;5014133;28;20481;-47
2022/04/07 11:14:53;;;;;;;0.50;0.40;;;10.70;99.90;;;;;;5014196;28;20472;-47
2022/04/07 11:17:32;;;;;;;0.70;0.30;;;10.80;99.90;;;;;;5013899;28;20456;-47
2022/04/07 11:20:13;;;;;;;0.77;0.50;;;10.80;99.90;;;;;;5014614;28;20440;-49
2022/04/07 11:22:49;;;;;;;0.50;0.40;;;10.70;99.90;;;;;;5013158;28;20534;-47
2022/04/07 11:25:26;;;;;;;0.67;0.63;;;10.80;99.90;;;;;;5033999;28;20439;-48
2022/04/07 11:28:19;;;;;;;0.60;0.40;;;10.80;99.90;;;;;;5032377;28;20463;-45
2022/04/07 11:30:49;;;;;;;1.00;0.50;;;10.80;99.90;;;;;;5014324;28;20534;-48
2022/04/07 11:33:39;;;;;;;1.07;0.67;;;10.70;99.90;;;;;;5031481;28;21060;-47
2022/04/07 11:36:33;;;;;;;0.50;0.40;;;10.80;99.90;;;;;;5031869;28;20435;-47
2022/04/07 11:39:02;;;;;;;0.50;0.40;;;10.80;99.90;;;;;;5022944;28;20898;-46
2022/04/07 11:41:41;;;;;;;0.80;0.50;;;10.80;99.90;;;;;;5031620;28;20545;-48
2022/04/07 11:44:11;;;;;;;0.60;0.40;;;10.80;99.90;;;;;;5031584;28;20479;-47
2022/04/07 11:46:40;;;;;;;1.30;0.90;;;10.80;99.90;;;;;;5028013;28;20490;-47
2022/04/07 11:49:11;;;;;;;7.70;1.03;;;10.80;99.90;;;;;;5030856;28;20890;-48
2022/04/07 11:51:41;;;;;;;4.40;0.70;;;10.80;99.90;;;;;;5032831;28;20424;-45
2022/04/07 11:54:09;;;;;;;2.60;0.60;;;10.80;99.90;;;;;;5023796;28;20475;-47
2022/04/07 11:56:40;;;;;;;0.63;0.60;;;10.80;99.90;;;;;;5032663;28;20527;-48
2022/04/07 11:59:10;;;;;;;0.90;0.80;;;10.80;99.90;;;;;;5032668;28;20475;-46
2022/04/07 12:01:40;;;;;;;0.57;0.47;;;10.80;99.90;;;;;;5032691;28;20513;-45
2022/04/07 12:04:11;;;;;;;1.57;1.03;;;10.80;99.90;;;;;;5029394;28;20486;-47
2022/04/07 12:06:46;;;;;;;2.30;0.60;;;10.80;99.90;;;;;;5023056;28;20449;-47
2022/04/07 12:09:16;;;;;;;1.10;0.60;;;10.80;99.90;;;;;;4994283;28;20492;-47
2022/04/07 12:11:45;;;;;;;0.87;0.70;;;10.80;99.90;;;;;;5010616;28;20789;-46
2022/04/07 12:14:15;;;;;;;0.90;0.80;;;10.80;99.90;;;;;;5029770;28;20548;-47
2022/04/07 12:16:46;;;;;;;0.70;0.50;;;10.90;99.90;;;;;;5031370;28;20440;-46
2022/04/07 12:19:16;;;;;;;1.00;0.70;;;10.80;99.90;;;;;;5009386;28;20483;-49
2022/04/07 12:21:54;;;;;;;0.73;0.63;;;10.80;99.90;;;;;;5012724;28;20461;-46
2022/04/07 12:24:23;;;;;;;0.70;0.50;;;10.90;99.90;;;;;;5015801;28;20477;-47
2022/04/07 12:26:53;;;;;;;0.63;0.57;;;10.90;99.90;;;;;;5031738;28;20795;-47
2022/04/07 12:29:23;;;;;;;0.60;0.50;;;10.90;99.90;;;;;;5031861;28;20470;-47
2022/04/07 12:31:59;;;;;;;1.17;0.53;;;10.90;99.90;;;;;;5031750;28;20440;-47
2022/04/07 12:34:28;;;;;;;1.47;0.60;;;10.90;99.90;;;;;;5024675;28;20997;-46
2022/04/07 12:36:58;;;;;;;0.90;0.70;;;10.90;99.90;;;;;;5024133;28;20432;-47
2022/04/07 12:39:34;;;;;;;0.97;0.80;;;10.90;99.90;;;;;;5029748;28;20479;-47
2022/04/07 12:42:05;;;;;;;0.80;0.60;;;10.90;99.90;;;;;;5028104;28;20459;-47
2022/04/07 12:44:38;;;;;;;0.93;0.70;;;10.90;99.90;;;;;;5030543;28;21011;-47
2022/04/07 12:47:13;;;;;;;1.00;0.67;;;10.90;99.90;;;;;;5023729;28;20440;-48
2022/04/07 12:49:55;;;;;;;1.27;0.90;;;10.90;99.90;;;;;;5031907;28;20946;-46
2022/04/07 12:52:37;;;;;;;0.90;0.73;;;10.90;99.90;;;;;;5030944;28;20444;-47
2022/04/07 12:55:07;;;;;;;1.10;0.67;;;10.90;99.90;;;;;;5024449;28;20458;-47
2022/04/07 12:57:38;;;;;;;1.60;0.90;;;10.90;99.90;;;;;;5030214;28;20470;-46
2022/04/07 13:00:27;;;;;;;2.00;1.10;;;10.90;99.90;;;;;;5031964;28;20439;-47
2022/04/07 13:02:57;;;;;;;0.90;0.77;;;10.90;99.90;;;;;;5028368;28;20476;-47